aviador You're here:

PAIG Decoded Metar

IGIUGIG in AK, USA
Report Time2018-01-19 10:56:00
UTC Time2018-01-19 11:11:13
Flight Rules vfr VFR
Wind310° at 07 kt
W.Decomp.*RWY 23: 3.4 kt HW 6.1 kt RCW
W.Rank310° ranks 17
Current wind is below 310° avg. (8.0)
Visibility9999 m
Phenomena:N/A
Clouds:N/A
Expected CloudBase > 800 ft AGL from Temp-Dew spread
CeilingNone
Temp-5°C (ISA -20)
Dew Point-7°C (86% RH)
AAT-10.3°C
QNH1002 hPa
Density Alt-1,929 ft
Elevation92 ft
Report Wrong Elevation
Raw Report
PAIG 191056Z AUTO 31007KT 10SM CLR M05/M07 A2960 RMK AO2 SLP036
T10501072 FZRANO $=

Extra information for PAIG:More info

Metar Taf Metar & Taf Last 4 Metars F.Rules Stats Wind Profile Meteogram Temp Stats Airport Information Weather charts Add Link Nearby VenuesMetar ALERT Operation Metar Decoded Social comments

AIRNAV info for PAIG